createdAt,value
2018-12-05T00:01:14.080Z,4.37
2018-12-05T00:03:41.556Z,5.30
2018-12-05T00:06:09.008Z,4.90
2018-12-05T00:08:36.504Z,4.63
2018-12-05T00:11:03.960Z,4.67
2018-12-05T00:13:31.542Z,3.77
2018-12-05T00:15:59.206Z,4.57
2018-12-05T00:18:26.687Z,6.57
2018-12-05T00:20:54.226Z,4.97
2018-12-05T00:23:21.696Z,7.30
2018-12-05T00:25:49.147Z,3.83
2018-12-05T00:28:16.626Z,4.30
2018-12-05T00:30:44.088Z,7.23
2018-12-05T00:33:11.549Z,6.27
2018-12-05T00:35:39.017Z,4.47
2018-12-05T00:38:06.487Z,5.40
2018-12-05T00:40:34.754Z,4.40
2018-12-05T00:43:04.814Z,4.67
2018-12-05T00:45:32.267Z,5.03
2018-12-05T00:47:59.798Z,5.77
2018-12-05T00:50:27.363Z,4.90
2018-12-05T00:52:54.917Z,3.83
2018-12-05T00:55:22.388Z,5.53
2018-12-05T00:57:51.393Z,2.83
2018-12-05T01:00:18.935Z,4.57
2018-12-05T01:02:46.410Z,6.17
2018-12-05T01:05:13.870Z,4.00
2018-12-05T01:07:41.325Z,5.83
2018-12-05T01:10:08.787Z,3.97
2018-12-05T01:12:36.355Z,4.87
2018-12-05T01:15:04.631Z,5.03
2018-12-05T01:17:32.091Z,4.77
2018-12-05T01:19:59.562Z,6.23
2018-12-05T01:22:27.027Z,5.73
2018-12-05T01:24:54.582Z,5.80
2018-12-05T01:27:22.055Z,6.87
2018-12-05T01:29:50.277Z,9.20
2018-12-05T01:32:17.748Z,5.57
2018-12-05T01:34:45.212Z,6.33
2018-12-05T01:37:12.675Z,4.27
2018-12-05T01:39:40.147Z,4.60
2018-12-05T01:42:07.611Z,3.80
2018-12-05T01:44:35.092Z,5.50
2018-12-05T01:47:03.466Z,5.40
2018-12-05T01:49:30.936Z,6.30
2018-12-05T01:51:58.410Z,7.00
2018-12-05T01:54:25.975Z,4.77
2018-12-05T01:56:53.441Z,4.97
2018-12-05T01:59:20.896Z,4.47
2018-12-05T02:01:48.442Z,6.60
2018-12-05T02:04:15.900Z,5.07
2018-12-05T02:06:43.356Z,4.90
2018-12-05T02:09:10.815Z,4.97
2018-12-05T02:11:38.293Z,6.33
2018-12-05T02:14:05.767Z,5.67
2018-12-05T02:16:33.228Z,6.13
2018-12-05T02:19:00.692Z,5.97
2018-12-05T02:21:28.158Z,5.10
2018-12-05T02:23:55.629Z,4.13
2018-12-05T02:26:23.871Z,4.30
2018-12-05T02:28:51.357Z,5.20
2018-12-05T02:31:18.821Z,7.10
2018-12-05T02:33:47.066Z,5.23
2018-12-05T02:36:14.527Z,4.23
2018-12-05T02:38:42.025Z,7.23
2018-12-05T02:41:09.614Z,6.22
2018-12-05T02:43:37.845Z,3.77
2018-12-05T02:46:05.331Z,3.27
2018-12-05T02:48:32.899Z,6.47
2018-12-05T02:51:00.353Z,5.60
2018-12-05T02:53:27.814Z,3.20
2018-12-05T02:55:55.377Z,5.03
2018-12-05T02:58:22.822Z,5.27
2018-12-05T03:00:50.298Z,4.17
2018-12-05T03:03:17.863Z,9.63
2018-12-05T03:05:45.349Z,7.97
2018-12-05T03:08:13.579Z,8.57
2018-12-05T03:10:41.047Z,5.77
2018-12-05T03:13:08.522Z,4.60
2018-12-05T03:15:35.976Z,5.10
2018-12-05T03:18:04.347Z,5.67
2018-12-05T03:20:31.815Z,4.13
2018-12-05T03:22:59.290Z,5.40
2018-12-05T03:25:26.764Z,5.87
2018-12-05T03:27:54.999Z,4.97
2018-12-05T03:30:22.447Z,7.07
2018-12-05T03:32:49.950Z,4.60
2018-12-05T03:35:18.726Z,4.43
2018-12-05T03:37:44.885Z,5.13
2018-12-05T03:40:12.342Z,5.60
2018-12-05T03:42:39.819Z,5.07
2018-12-05T03:45:08.187Z,6.10
2018-12-05T03:47:35.757Z,7.70
2018-12-05T03:50:03.954Z,5.20
2018-12-05T03:52:32.246Z,5.13
2018-12-05T03:54:59.667Z,6.60
2018-12-05T03:57:27.120Z,8.13
2018-12-05T03:59:54.692Z,6.93
2018-12-05T04:02:22.166Z,7.73
2018-12-05T04:04:49.665Z,7.47
2018-12-05T04:07:17.103Z,8.87
2018-12-05T04:09:45.210Z,7.77
2018-12-05T04:12:12.906Z,7.30
2018-12-05T04:14:40.383Z,7.00
2018-12-05T04:17:07.955Z,4.60
2018-12-05T04:19:35.448Z,6.87
2018-12-05T04:22:04.575Z,9.53
2018-12-05T04:24:32.083Z,7.40
2018-12-05T04:26:59.649Z,9.23
2018-12-05T04:29:27.114Z,8.03
2018-12-05T04:31:54.585Z,9.63
2018-12-05T04:34:22.132Z,11.30
2018-12-05T04:36:49.708Z,9.03
2018-12-05T04:39:17.169Z,6.18
2018-12-05T04:41:44.626Z,7.53
2018-12-05T04:44:12.849Z,7.63
2018-12-05T04:46:40.322Z,10.83
2018-12-05T04:49:07.782Z,8.20
2018-12-05T04:51:35.241Z,8.43
2018-12-05T04:54:03.683Z,7.53
2018-12-05T04:56:31.938Z,8.53
2018-12-05T04:58:59.391Z,9.23
2018-12-05T05:01:26.862Z,8.07
2018-12-05T05:03:54.319Z,9.60
2018-12-05T05:06:21.766Z,10.55
2018-12-05T05:08:49.250Z,10.13
2018-12-05T05:11:16.713Z,7.63
2018-12-05T05:13:44.178Z,12.33
2018-12-05T05:16:11.636Z,10.23
2018-12-05T05:18:39.092Z,12.23
2018-12-05T05:21:06.566Z,11.63
2018-12-05T05:23:34.030Z,11.80
2018-12-05T05:26:01.486Z,8.80
2018-12-05T05:28:29.030Z,7.53
2018-12-05T05:30:56.499Z,13.00
2018-12-05T05:33:23.958Z,10.23
2018-12-05T05:35:51.445Z,10.83
2018-12-05T05:38:18.901Z,12.23
2018-12-05T05:40:46.381Z,9.73
2018-12-05T05:43:13.841Z,11.43
2018-12-05T05:45:42.927Z,9.67
2018-12-05T05:48:10.384Z,7.57
2018-12-05T05:50:37.849Z,8.13
2018-12-05T05:53:05.411Z,9.57
2018-12-05T05:55:32.888Z,9.97
2018-12-05T05:58:00.434Z,11.77
2018-12-05T06:00:27.897Z,10.17
2018-12-05T06:02:55.354Z,9.40
2018-12-05T06:05:22.931Z,7.50
2018-12-05T06:07:50.396Z,12.57
2018-12-05T06:10:17.947Z,12.10
2018-12-05T06:12:45.394Z,8.77
2018-12-05T06:15:12.870Z,11.60
2018-12-05T06:17:40.431Z,10.60
2018-12-05T06:20:07.903Z,9.03
2018-12-05T06:22:35.466Z,12.57
2018-12-05T06:25:03.957Z,11.70
2018-12-05T06:27:32.241Z,7.33
2018-12-05T06:29:59.802Z,11.20
2018-12-05T06:32:28.024Z,8.17
2018-12-05T06:34:55.495Z,10.00
2018-12-05T06:37:22.955Z,10.53
2018-12-05T06:39:50.417Z,11.60
2018-12-05T06:42:17.914Z,9.23
2018-12-05T06:44:45.365Z,9.13
2018-12-05T06:47:12.860Z,8.37
2018-12-05T06:49:41.828Z,9.13
2018-12-05T06:52:09.843Z,8.47
2018-12-05T06:54:38.054Z,8.60
2018-12-05T06:57:05.511Z,9.03
2018-12-05T06:59:33.013Z,9.70
2018-12-05T07:02:00.482Z,9.10
2018-12-05T07:04:28.043Z,7.43
2018-12-05T07:06:55.493Z,8.43
2018-12-05T07:09:22.957Z,7.73
2018-12-05T07:11:50.425Z,7.53
2018-12-05T07:14:17.879Z,8.17
2018-12-05T07:16:45.451Z,9.37
2018-12-05T07:19:13.018Z,9.93
2018-12-05T07:21:40.475Z,10.83
2018-12-05T07:24:09.049Z,10.93
2018-12-05T07:26:35.507Z,7.27
2018-12-05T07:29:03.886Z,7.57
2018-12-05T07:31:31.357Z,8.13
2018-12-05T07:33:58.809Z,6.20
2018-12-05T07:36:27.998Z,7.17
2018-12-05T07:38:54.515Z,6.97
2018-12-05T07:41:21.982Z,8.40
2018-12-05T07:43:49.486Z,8.43
2018-12-05T07:46:18.431Z,8.50
2018-12-05T07:48:45.892Z,8.90
2018-12-05T07:51:13.353Z,7.87
2018-12-05T07:53:40.845Z,9.47
2018-12-05T07:56:08.300Z,10.33
2018-12-05T07:58:35.887Z,6.47
2018-12-05T08:01:04.647Z,7.72
2018-12-05T08:03:32.098Z,8.20
2018-12-05T08:05:59.579Z,8.10
2018-12-05T08:08:27.038Z,8.20
2018-12-05T08:10:54.525Z,7.77
2018-12-05T08:13:22.084Z,6.27
2018-12-05T08:15:49.529Z,6.23
2018-12-05T08:18:16.990Z,7.33
2018-12-05T08:20:44.446Z,6.37
2018-12-05T08:23:11.936Z,6.83
2018-12-05T08:25:40.829Z,9.33
2018-12-05T08:28:06.876Z,6.43
2018-12-05T08:30:34.429Z,9.67
2018-12-05T08:33:01.890Z,7.03
2018-12-05T08:35:29.362Z,5.63
2018-12-05T08:37:56.910Z,8.10
2018-12-05T08:40:24.468Z,7.17
2018-12-05T08:42:52.040Z,8.67
2018-12-05T08:45:19.509Z,7.00
2018-12-05T08:47:47.070Z,11.23
2018-12-05T08:50:14.525Z,8.20
2018-12-05T08:52:42.806Z,8.00
2018-12-05T08:55:11.028Z,10.13
2018-12-05T08:57:38.492Z,6.27
2018-12-05T09:00:06.719Z,7.30
2018-12-05T09:02:34.174Z,10.10
2018-12-05T09:05:01.633Z,10.90
2018-12-05T09:07:29.108Z,8.07
2018-12-05T09:09:56.569Z,9.30
2018-12-05T09:12:24.029Z,6.90
2018-12-05T09:14:51.487Z,5.63
2018-12-05T09:17:19.058Z,8.33
2018-12-05T09:19:46.517Z,6.87
2018-12-05T09:22:13.982Z,7.27
2018-12-05T09:24:41.432Z,6.90
2018-12-05T09:27:08.994Z,7.07
2018-12-05T09:29:36.445Z,8.13
2018-12-05T09:32:04.850Z,6.95
2018-12-05T09:34:32.325Z,8.00
2018-12-05T09:36:59.873Z,8.30
2018-12-05T09:39:27.341Z,9.37
2018-12-05T09:41:54.892Z,6.40
2018-12-05T09:44:22.362Z,8.23
2018-12-05T09:46:49.814Z,8.77
2018-12-05T09:49:17.282Z,10.00
2018-12-05T09:51:44.756Z,9.53
2018-12-05T09:54:13.716Z,10.50
2018-12-05T09:56:41.172Z,9.90
2018-12-05T09:59:08.628Z,9.30
2018-12-05T10:01:36.126Z,8.53
2018-12-05T10:04:04.720Z,10.20
2018-12-05T10:06:32.198Z,10.90
2018-12-05T10:08:59.744Z,9.73
2018-12-05T10:11:27.205Z,10.07
2018-12-05T10:13:54.673Z,8.87
2018-12-05T10:16:23.662Z,12.80
2018-12-05T10:18:51.139Z,12.90
2018-12-05T10:21:18.661Z,11.60
2018-12-05T10:23:46.129Z,10.60
2018-12-05T10:26:13.577Z,9.40
2018-12-05T10:28:41.044Z,10.97
2018-12-05T10:31:08.541Z,11.27
2018-12-05T10:33:36.002Z,15.90
2018-12-05T10:36:03.648Z,12.33
2018-12-05T10:38:31.097Z,11.53
2018-12-05T10:40:58.587Z,13.43
2018-12-05T10:43:26.155Z,14.87
2018-12-05T10:45:53.621Z,12.83
2018-12-05T10:48:22.582Z,8.93
2018-12-05T10:50:50.037Z,12.70
2018-12-05T10:53:17.509Z,9.87
2018-12-05T10:55:44.978Z,11.43
2018-12-05T10:58:12.451Z,11.60
2018-12-05T11:00:45.639Z,10.10
2018-12-05T11:03:14.046Z,13.33
2018-12-05T11:05:47.240Z,9.10
2018-12-05T11:08:19.577Z,10.10
2018-12-05T11:10:52.944Z,10.83
2018-12-05T11:13:26.181Z,11.00
2018-12-05T11:16:00.613Z,11.30
2018-12-05T11:18:33.892Z,11.73
2018-12-05T11:21:07.061Z,9.97
2018-12-05T11:23:40.267Z,7.67
2018-12-05T11:26:07.716Z,9.73
2018-12-05T11:28:35.178Z,9.90
2018-12-05T11:31:02.652Z,9.50
2018-12-05T11:33:30.104Z,9.97
2018-12-05T11:35:57.590Z,8.37
2018-12-05T11:38:25.165Z,11.13
2018-12-05T11:40:52.613Z,9.07
2018-12-05T11:43:20.070Z,8.27
2018-12-05T11:45:47.555Z,8.80
2018-12-05T11:48:15.101Z,9.43
2018-12-05T11:50:42.673Z,7.57
2018-12-05T11:53:10.130Z,9.23
2018-12-05T11:55:37.592Z,9.47
2018-12-05T11:58:05.159Z,8.60
2018-12-05T12:00:32.733Z,6.53
2018-12-05T12:03:00.209Z,8.77
2018-12-05T12:05:27.656Z,9.37
2018-12-05T12:07:55.126Z,11.33
2018-12-05T12:10:22.595Z,7.27
2018-12-05T12:12:56.527Z,9.17
2018-12-05T12:15:23.993Z,7.77
2018-12-05T12:17:51.470Z,6.70
2018-12-05T12:20:18.911Z,7.33
2018-12-05T12:22:46.369Z,6.40
2018-12-05T12:25:13.849Z,10.40
2018-12-05T12:27:41.710Z,7.10
2018-12-05T12:30:15.723Z,9.67
2018-12-05T12:32:36.703Z,7.33
2018-12-05T12:35:04.180Z,10.27
2018-12-05T12:37:32.428Z,8.60
2018-12-05T12:39:59.896Z,10.93
2018-12-05T12:42:27.364Z,8.13
2018-12-05T12:44:54.804Z,9.33
2018-12-05T12:47:22.305Z,7.23
2018-12-05T12:49:49.751Z,9.53
2018-12-05T12:52:17.305Z,7.83
2018-12-05T12:54:45.573Z,7.20
2018-12-05T12:57:13.032Z,9.27
2018-12-05T12:59:40.514Z,8.17
2018-12-05T13:02:07.987Z,8.00
2018-12-05T13:04:35.456Z,10.00
2018-12-05T13:07:04.607Z,8.33
2018-12-05T13:09:32.130Z,6.83
2018-12-05T13:12:00.373Z,7.13
2018-12-05T13:14:27.943Z,6.80
2018-12-05T13:16:55.415Z,8.93
2018-12-05T13:19:23.687Z,7.43
2018-12-05T13:21:51.165Z,12.13
2018-12-05T13:24:18.634Z,9.10
2018-12-05T13:26:46.884Z,9.33
2018-12-05T13:29:14.392Z,7.30
2018-12-05T13:31:43.064Z,7.70
2018-12-05T13:34:11.281Z,9.23
2018-12-05T13:36:38.741Z,11.93
2018-12-05T13:39:06.199Z,7.90
2018-12-05T13:41:33.657Z,9.30
2018-12-05T13:44:01.122Z,9.87
2018-12-05T13:46:30.050Z,10.43
2018-12-05T13:48:56.070Z,8.43
2018-12-05T13:51:23.541Z,9.27
2018-12-05T13:53:51.123Z,9.87
2018-12-05T13:56:18.584Z,7.77
2018-12-05T13:58:46.042Z,8.57
2018-12-05T14:01:13.598Z,11.07
2018-12-05T14:03:41.153Z,8.33
2018-12-05T14:06:08.731Z,11.95
2018-12-05T14:08:36.291Z,7.50
2018-12-05T14:11:03.760Z,8.87
2018-12-05T14:13:33.326Z,11.00
2018-12-05T14:16:00.826Z,10.03
2018-12-05T14:18:28.373Z,8.03
2018-12-05T14:20:55.848Z,9.27
2018-12-05T14:23:23.305Z,8.93
2018-12-05T14:25:50.762Z,10.53
2018-12-05T14:28:18.332Z,8.33
2018-12-05T14:30:46.557Z,9.07
2018-12-05T14:33:13.271Z,9.33
2018-12-05T14:35:41.496Z,12.60
2018-12-05T14:38:08.946Z,8.40
2018-12-05T14:40:36.468Z,12.77
2018-12-05T14:43:03.933Z,9.10
2018-12-05T14:45:32.914Z,9.07
2018-12-05T14:48:00.488Z,11.63
2018-12-05T14:50:27.957Z,10.47
2018-12-05T14:52:55.402Z,9.87
2018-12-05T14:55:22.980Z,10.00
2018-12-05T14:57:50.536Z,10.87
2018-12-05T15:00:18.110Z,11.37
2018-12-05T15:02:45.576Z,10.97
2018-12-05T15:05:13.791Z,12.00
2018-12-05T15:07:41.254Z,9.40
2018-12-05T15:10:08.715Z,10.43
2018-12-05T15:12:36.193Z,9.97
2018-12-05T15:15:04.704Z,10.73
2018-12-05T15:17:32.153Z,13.13
2018-12-05T15:19:59.619Z,13.07
2018-12-05T15:22:27.081Z,11.13
2018-12-05T15:24:54.537Z,10.50
2018-12-05T15:27:22.006Z,14.03
2018-12-05T15:29:49.470Z,12.83
2018-12-05T15:32:16.929Z,11.73
2018-12-05T15:34:44.392Z,15.60
2018-12-05T15:37:11.938Z,11.63
2018-12-05T15:39:40.112Z,12.57
2018-12-05T15:42:07.606Z,9.50
2018-12-05T15:44:35.170Z,11.33
2018-12-05T15:47:02.739Z,16.03
2018-12-05T15:49:30.198Z,12.13
2018-12-05T15:51:57.703Z,11.10
2018-12-05T15:56:56.351Z,12.33
2018-12-05T15:59:23.826Z,12.67
2018-12-05T16:01:51.283Z,13.07
2018-12-05T16:04:18.735Z,11.97
2018-12-05T16:06:46.209Z,14.17
2018-12-05T16:09:13.689Z,14.67
2018-12-05T16:11:41.249Z,11.63
2018-12-05T16:14:08.795Z,10.63
2018-12-05T16:16:36.178Z,12.70
2018-12-05T16:19:04.547Z,10.43
2018-12-05T16:21:32.002Z,11.63
2018-12-05T16:23:59.491Z,13.57
2018-12-05T16:26:27.041Z,13.20
2018-12-05T16:28:54.508Z,13.53
2018-12-05T16:31:23.486Z,11.60
2018-12-05T16:33:50.947Z,11.57
2018-12-05T16:36:18.400Z,11.13
2018-12-05T16:38:45.861Z,11.10
2018-12-05T16:41:13.337Z,11.47
2018-12-05T16:43:40.803Z,11.13
2018-12-05T16:46:08.258Z,10.53
2018-12-05T16:48:35.741Z,10.57
2018-12-05T16:51:04.578Z,10.40
2018-12-05T16:53:32.038Z,10.87
2018-12-05T16:55:59.550Z,12.73
2018-12-05T16:58:27.007Z,11.17
2018-12-05T17:00:54.478Z,10.23
2018-12-05T17:03:22.004Z,9.63
2018-12-05T17:05:49.487Z,9.90
2018-12-05T17:08:16.957Z,10.90
2018-12-05T17:10:44.422Z,10.43
2018-12-05T17:13:11.886Z,13.33
2018-12-05T17:15:39.350Z,12.57
2018-12-05T17:18:06.810Z,9.97
2018-12-05T17:20:35.030Z,13.00
2018-12-05T17:23:04.164Z,10.37
2018-12-05T17:25:31.650Z,13.57
2018-12-05T17:27:59.128Z,12.97
2018-12-05T17:30:27.358Z,12.67
2018-12-05T17:32:54.848Z,10.83
2018-12-05T17:35:22.322Z,16.10
2018-12-05T17:37:49.881Z,10.93
2018-12-05T17:40:17.345Z,9.40
2018-12-05T17:42:44.815Z,12.93
2018-12-05T17:45:12.279Z,12.97
2018-12-05T17:47:40.524Z,10.77
2018-12-05T17:50:08.733Z,11.73
2018-12-05T17:52:36.202Z,9.50
2018-12-05T17:55:04.737Z,10.65
2018-12-05T17:57:32.220Z,13.13
2018-12-05T17:59:59.694Z,12.20
2018-12-05T18:02:27.258Z,13.63
2018-12-05T18:04:54.821Z,12.53
2018-12-05T18:07:22.341Z,10.77
2018-12-05T18:09:49.811Z,11.57
2018-12-05T18:12:17.255Z,9.33
2018-12-05T18:14:44.727Z,10.67
2018-12-05T18:17:12.286Z,11.80
2018-12-05T18:19:39.811Z,9.13
2018-12-05T18:22:07.272Z,13.53
2018-12-05T18:24:34.751Z,9.50
2018-12-05T18:27:03.931Z,11.17
2018-12-05T18:29:33.001Z,13.83
2018-12-05T18:32:00.466Z,10.93
2018-12-05T18:34:28.060Z,12.40
2018-12-05T18:36:55.642Z,9.00
2018-12-05T18:39:23.871Z,11.23
2018-12-05T18:41:51.498Z,11.10
2018-12-05T18:44:18.905Z,10.20
2018-12-05T18:46:46.487Z,8.80
2018-12-05T18:49:14.039Z,10.57
2018-12-05T18:51:41.662Z,9.53
2018-12-05T18:54:09.115Z,14.33
2018-12-05T18:56:36.635Z,10.90
2018-12-05T18:59:04.093Z,8.00
2018-12-05T19:01:31.667Z,9.83
2018-12-05T19:03:59.150Z,11.00
2018-12-05T19:06:27.451Z,8.63
2018-12-05T19:08:55.688Z,8.87
2018-12-05T19:11:23.247Z,9.67
2018-12-05T19:13:56.391Z,11.17
2018-12-05T19:16:23.914Z,13.20
2018-12-05T19:18:51.394Z,8.23
2018-12-05T19:21:19.622Z,8.87
2018-12-05T19:23:47.258Z,10.17
2018-12-05T19:26:14.612Z,11.55
2018-12-05T19:28:44.483Z,7.47
2018-12-05T19:31:19.227Z,14.03
2018-12-05T19:33:40.328Z,7.30
2018-12-05T19:36:07.776Z,11.47
2018-12-05T19:38:35.253Z,9.47
2018-12-05T19:41:03.736Z,9.23
2018-12-05T19:43:31.296Z,11.63
2018-12-05T19:45:58.878Z,9.27
2018-12-05T19:48:26.424Z,12.13
2018-12-05T19:50:53.905Z,11.13
2018-12-05T19:53:22.181Z,11.30
2018-12-05T19:55:50.455Z,10.73
2018-12-05T19:58:18.682Z,11.77
2018-12-05T20:00:46.203Z,11.10
2018-12-05T20:03:15.181Z,8.03
2018-12-05T20:05:42.635Z,11.40
2018-12-05T20:08:10.118Z,7.67
2018-12-05T20:10:37.619Z,12.93
2018-12-05T20:13:05.086Z,11.97
2018-12-05T20:15:32.618Z,7.70
2018-12-05T20:18:00.085Z,9.13
2018-12-05T20:20:28.315Z,11.43
2018-12-05T20:22:55.892Z,11.98
2018-12-05T20:25:24.092Z,9.73
2018-12-05T20:27:52.372Z,9.90
2018-12-05T20:30:19.838Z,13.53
2018-12-05T20:32:47.318Z,12.70
2018-12-05T20:35:15.538Z,8.80
2018-12-05T20:37:43.046Z,11.43
2018-12-05T20:40:10.598Z,10.77
2018-12-05T20:42:38.161Z,10.87
2018-12-05T20:45:05.723Z,10.97
2018-12-05T20:47:33.183Z,8.80
2018-12-05T20:50:00.679Z,11.77
2018-12-05T20:52:28.908Z,9.13
2018-12-05T20:54:56.362Z,9.60
2018-12-05T20:57:23.851Z,8.37
2018-12-05T20:59:51.323Z,11.17
2018-12-05T21:02:18.897Z,10.60
2018-12-05T21:04:46.364Z,12.17
2018-12-05T21:07:13.916Z,8.27
2018-12-05T21:09:42.875Z,6.40
2018-12-05T21:12:10.322Z,8.13
2018-12-05T21:14:39.043Z,8.67
2018-12-05T21:17:06.493Z,11.57
2018-12-05T21:19:33.955Z,10.17
2018-12-05T21:22:01.422Z,7.70
2018-12-05T21:24:28.889Z,9.67
2018-12-05T21:26:56.330Z,8.93
2018-12-05T21:29:23.833Z,11.60
2018-12-05T21:31:52.826Z,11.63
2018-12-05T21:34:20.308Z,9.87
2018-12-05T21:36:48.548Z,8.23
2018-12-05T21:39:16.046Z,12.27
2018-12-05T21:41:44.277Z,12.40
2018-12-05T21:44:11.771Z,12.23
2018-12-05T21:46:39.342Z,9.87
2018-12-05T21:49:06.791Z,11.33
2018-12-05T21:51:34.247Z,11.43
2018-12-05T21:54:01.720Z,10.33
2018-12-05T21:56:30.775Z,12.73
2018-12-05T21:58:58.239Z,10.90
2018-12-05T22:01:25.697Z,10.20
2018-12-05T22:03:53.166Z,12.93
2018-12-05T22:06:20.609Z,7.30
2018-12-05T22:08:48.122Z,11.47
2018-12-05T22:11:15.688Z,10.13
2018-12-05T22:13:43.253Z,10.00
2018-12-05T22:16:10.721Z,15.17
2018-12-05T22:18:38.723Z,13.63
2018-12-05T22:21:06.946Z,10.73
2018-12-05T22:23:34.434Z,11.13
2018-12-05T22:26:01.901Z,13.17
2018-12-05T22:28:29.366Z,12.07
2018-12-05T22:30:56.837Z,9.17
2018-12-05T22:33:25.132Z,11.37
2018-12-05T22:35:52.543Z,13.10
2018-12-05T22:38:19.984Z,9.70
2018-12-05T22:40:47.450Z,14.70
2018-12-05T22:43:14.918Z,13.73
2018-12-05T22:45:42.380Z,15.33
2018-12-05T22:48:09.887Z,13.13
2018-12-05T22:50:37.486Z,11.23
2018-12-05T22:53:05.017Z,12.63
2018-12-05T22:55:32.479Z,12.43
2018-12-05T22:58:00.050Z,12.87
2018-12-05T23:00:30.381Z,10.20
2018-12-05T23:02:58.745Z,10.73
2018-12-05T23:05:26.212Z,12.17
2018-12-05T23:07:53.672Z,13.13
2018-12-05T23:10:21.144Z,16.90
2018-12-05T23:12:49.398Z,12.80
2018-12-05T23:15:17.647Z,12.65
2018-12-05T23:17:45.116Z,9.27
2018-12-05T23:20:12.569Z,11.57
2018-12-05T23:22:40.039Z,15.70
2018-12-05T23:25:07.494Z,11.13
2018-12-05T23:27:34.955Z,14.87
2018-12-05T23:30:02.430Z,13.70
2018-12-05T23:32:29.887Z,11.37
2018-12-05T23:34:57.341Z,12.97
2018-12-05T23:37:24.846Z,11.13
2018-12-05T23:39:52.293Z,16.43
2018-12-05T23:42:19.764Z,13.03
2018-12-05T23:44:47.325Z,11.43
2018-12-05T23:47:14.887Z,16.27
2018-12-05T23:49:42.359Z,8.90
2018-12-05T23:52:09.848Z,12.67
2018-12-05T23:54:38.085Z,8.70
2018-12-05T23:57:05.553Z,11.10
2018-12-05T23:59:33.018Z,11.60
